Time;durP1;ratioP1;P1;durP2;ratioP2;P2;SDS_P1;SDS_P2;PMS_P1;PMS_P2;Temp;Humidity;BMP_temperature;BMP_pressure;BME280_temperature;BME280_humidity;BME280_pressure;Samples;Min_cycle;Max_cycle;Signal;HPM_P1;HPM_P2
2022/04/14 00:00:05;;;;;;;13.13;4.60;;;;;;;12.54;70.81;102086.34;4974148;28;97896;-34
2022/04/14 00:02:31;;;;;;;12.43;4.47;;;;;;;12.46;71.02;102075.81;4975236;28;100169;-34
2022/04/14 00:04:56;;;;;;;10.32;5.30;;;;;;;12.43;70.34;102073.28;4976983;28;116780;-34
2022/04/14 00:07:31;;;;;;;12.73;4.70;;;;;;;12.45;71.32;102075.91;4977540;28;96763;-34
2022/04/14 00:09:56;;;;;;;9.40;4.70;;;;;;;12.43;70.85;102080.53;4976383;28;97972;-34
2022/04/14 00:12:21;;;;;;;13.10;5.05;;;;;;;12.42;70.47;102076.06;4976665;28;114043;-34
2022/04/14 00:14:47;;;;;;;10.10;4.93;;;;;;;12.39;70.64;102068.94;4977401;28;103224;-34
2022/04/14 00:17:12;;;;;;;8.73;5.03;;;;;;;12.39;70.73;102078.94;4977708;28;96743;-34
2022/04/14 00:19:38;;;;;;;9.00;4.22;;;;;;;12.31;70.76;102066.59;4977029;28;99371;-34
2022/04/14 00:22:04;;;;;;;12.73;5.13;;;;;;;12.31;71.27;102072.03;4975687;28;100919;-34
2022/04/14 00:24:29;;;;;;;8.07;4.43;;;;;;;12.32;71.22;102072.91;4977223;28;97058;-34
2022/04/14 00:26:54;;;;;;;8.32;3.90;;;;;;;12.33;71.25;102075.56;4977062;28;113612;-34
2022/04/14 00:29:20;;;;;;;9.05;5.05;;;;;;;12.27;70.91;102064.97;4977024;28;97896;-34
2022/04/14 00:31:45;;;;;;;10.50;4.03;;;;;;;12.25;71.12;102068.72;4976821;28;104785;-34
2022/04/14 00:34:10;;;;;;;8.38;4.80;;;;;;;12.29;71.33;102076.66;4975978;28;117883;-34
2022/04/14 00:36:35;;;;;;;11.45;5.47;;;;;;;12.25;70.49;102063.31;4976238;28;117595;-34
2022/04/14 00:39:01;;;;;;;11.43;5.00;;;;;;;12.23;71.30;102068.84;4975609;28;126460;-34
2022/04/14 00:41:29;;;;;;;9.40;4.70;;;;;;;12.22;71.13;102058.91;4976545;28;99585;-34
2022/04/14 00:43:55;;;;;;;10.07;4.38;;;;;;;12.22;71.96;102058.91;4977217;28;96663;-34
2022/04/14 00:46:21;;;;;;;12.30;5.72;;;;;;;12.21;71.42;102062.59;4975143;28;107210;-34
2022/04/14 00:48:48;;;;;;;9.10;4.75;;;;;;;12.13;71.90;102053.91;4975394;28;100690;-34
2022/04/14 00:51:14;;;;;;;14.70;5.15;;;;;;;12.15;71.52;102054.72;4975578;28;101032;-34
2022/04/14 00:53:40;;;;;;;12.40;5.45;;;;;;;12.13;71.94;102059.34;4976971;28;96611;-34
2022/04/14 00:56:06;;;;;;;13.38;5.70;;;;;;;12.06;71.81;102050.63;4977058;28;96750;-34
2022/04/14 00:58:33;;;;;;;9.25;4.78;;;;;;;12.06;71.72;102060.59;4974323;28;101569;-34
2022/04/14 01:00:59;;;;;;;13.27;5.43;;;;;;;12.05;71.87;102058.84;4974969;28;101068;-34
2022/04/14 01:03:25;;;;;;;11.70;5.47;;;;;;;11.93;72.30;102060.31;4976896;28;97318;-34
2022/04/14 01:05:52;;;;;;;10.43;5.13;;;;;;;11.88;72.36;102054.22;4977031;28;96771;-34
2022/04/14 01:08:18;;;;;;;13.65;5.22;;;;;;;11.87;72.43;102061.50;4957988;28;101073;-34
2022/04/14 01:10:48;;;;;;;12.52;5.60;;;;;;;11.86;72.21;102070.56;4975048;28;100870;-34
2022/04/14 01:13:15;;;;;;;14.65;5.22;;;;;;;11.76;72.33;102062.94;4974948;28;96799;-34
2022/04/14 01:15:41;;;;;;;9.07;4.55;;;;;;;11.72;72.37;102058.59;4975623;28;96847;-34
2022/04/14 01:18:06;;;;;;;13.23;4.85;;;;;;;11.65;71.99;102048.00;4976665;28;96997;-34
2022/04/14 01:20:31;;;;;;;10.63;5.30;;;;;;;11.70;72.28;102066.78;4976189;28;97290;-34
2022/04/14 01:23:01;;;;;;;11.60;4.30;;;;;;;11.65;72.45;102071.56;4975954;28;96611;-34
2022/04/14 01:25:26;;;;;;;13.90;5.25;;;;;;;11.57;72.59;102063.78;4974896;28;96923;-34
2022/04/14 01:27:52;;;;;;;13.25;5.10;;;;;;;11.58;72.64;102076.38;4975425;28;113291;-34
2022/04/14 01:30:17;;;;;;;16.83;5.43;;;;;;;11.55;72.81;102072.94;4974571;28;101300;-34
2022/04/14 01:32:43;;;;;;;10.68;4.47;;;;;;;11.49;72.77;102060.56;4976702;28;96490;-34
2022/04/14 01:35:11;;;;;;;13.02;4.60;;;;;;;11.47;72.57;102074.19;4976181;28;96814;-34
2022/04/14 01:37:37;;;;;;;9.18;4.55;;;;;;;11.46;72.56;102068.81;4975887;28;97986;-34
2022/04/14 01:40:03;;;;;;;10.15;5.15;;;;;;;11.37;72.94;102071.94;4976144;28;99212;-34
2022/04/14 01:42:29;;;;;;;9.60;4.82;;;;;;;11.39;72.68;102087.22;4974654;28;96543;-34
2022/04/14 01:44:54;;;;;;;10.13;5.32;;;;;;;11.31;73.34;102080.38;4976233;28;96817;-34
2022/04/14 01:47:19;;;;;;;8.93;5.25;;;;;;;11.31;72.48;102078.53;4974009;28;99580;-34
2022/04/14 01:49:45;;;;;;;9.10;4.32;;;;;;;11.29;73.02;102069.56;4973425;28;127192;-34
2022/04/14 01:52:10;;;;;;;10.45;5.22;;;;;;;11.29;72.88;102074.13;4975459;28;102737;-34
2022/04/14 01:54:35;;;;;;;13.60;5.53;;;;;;;11.29;73.23;102082.25;4975516;28;103909;-34
2022/04/14 01:57:01;;;;;;;11.15;4.80;;;;;;;11.28;73.43;102086.81;4975511;28;99358;-34
2022/04/14 01:59:26;;;;;;;8.45;4.45;;;;;;;11.19;73.58;102074.53;4975499;28;100887;-34
2022/04/14 02:01:51;;;;;;;10.80;4.82;;;;;;;11.20;73.19;102089.88;4975784;28;96655;-34
2022/04/14 02:04:16;;;;;;;10.90;5.22;;;;;;;11.16;72.89;102088.25;4975541;28;110837;-34
2022/04/14 02:06:42;;;;;;;13.70;5.28;;;;;;;11.08;73.24;102081.38;4974563;28;118547;-34
2022/04/14 02:09:08;;;;;;;13.20;5.43;;;;;;;11.11;73.34;102097.50;4974734;28;99535;-34
2022/04/14 02:11:33;;;;;;;14.63;5.43;;;;;;;11.03;73.69;102087.88;4975147;28;96527;-34
2022/04/14 02:13:58;;;;;;;8.73;4.88;;;;;;;11.02;73.59;102086.13;4975764;28;96894;-34
2022/04/14 02:16:24;;;;;;;7.70;4.05;;;;;;;10.98;73.55;102089.91;4973424;28;125833;-34
2022/04/14 02:18:49;;;;;;;10.65;4.88;;;;;;;11.00;73.88;102096.16;4974715;28;126177;-34
2022/04/14 02:21:14;;;;;;;9.75;4.78;;;;;;;10.92;73.72;102090.19;4975324;28;96654;-35
2022/04/14 02:23:40;;;;;;;10.95;5.20;;;;;;;10.88;73.49;102085.84;4974936;28;96842;-34
2022/04/14 02:26:05;;;;;;;9.38;4.25;;;;;;;10.86;73.13;102086.84;4974830;28;99313;-34
2022/04/14 02:28:30;;;;;;;10.02;4.07;;;;;;;10.90;73.67;102094.78;4974567;28;126470;-34
2022/04/14 02:30:56;;;;;;;10.85;4.82;;;;;;;10.83;73.66;102093.28;4975561;28;96560;-34
2022/04/14 02:33:21;;;;;;;9.05;5.13;;;;;;;10.86;73.43;102097.69;4974026;28;96931;-34
2022/04/14 02:35:46;;;;;;;9.32;4.32;;;;;;;10.77;73.85;102089.03;4974310;28;98394;-34
2022/04/14 02:38:12;;;;;;;9.10;4.47;;;;;;;10.80;73.63;102104.28;4973576;28;98862;-34
2022/04/14 02:40:37;;;;;;;9.20;4.57;;;;;;;10.77;73.91;102101.66;4975527;28;96631;-34
2022/04/14 02:43:03;;;;;;;9.80;5.15;;;;;;;10.78;73.44;102106.16;4974686;28;113633;-34
2022/04/14 02:45:29;;;;;;;7.57;4.63;;;;;;;10.73;73.60;102100.94;4973720;28;101237;-34
2022/04/14 02:47:54;;;;;;;8.15;4.57;;;;;;;10.74;73.60;102104.53;4974896;28;99200;-34
2022/04/14 02:50:20;;;;;;;9.05;3.78;;;;;;;10.72;73.80;102107.28;4973784;28;96658;-34
2022/04/14 02:52:50;;;;;;;10.75;4.90;;;;;;;10.73;73.75;102108.19;4974186;28;96693;-34
2022/04/14 02:55:20;;;;;;;15.00;4.38;;;;;;;10.72;73.80;102095.56;4973725;28;100632;-34
2022/04/14 02:57:45;;;;;;;10.15;4.53;;;;;;;10.70;73.43;102098.38;4973110;28;100898;-34
2022/04/14 03:00:11;;;;;;;7.97;4.03;;;;;;;10.65;73.59;102089.50;4973255;28;96761;-34
2022/04/14 03:02:38;;;;;;;6.15;3.90;;;;;;;10.66;73.91;102098.56;4974839;28;96908;-34
2022/04/14 03:05:04;;;;;;;9.23;4.90;;;;;;;10.58;73.58;102086.22;4973592;28;100663;-34
2022/04/14 03:07:29;;;;;;;10.50;4.82;;;;;;;10.52;73.61;102081.03;4973111;28;101445;-34
2022/04/14 03:09:55;;;;;;;8.85;4.57;;;;;;;10.62;73.27;102101.38;4974942;28;96891;-34
2022/04/14 03:12:20;;;;;;;9.65;4.05;;;;;;;10.57;73.35;102089.84;4975179;28;96805;-34
2022/04/14 03:14:47;;;;;;;8.40;4.20;;;;;;;10.61;74.32;102104.16;4974857;28;97385;-34
2022/04/14 03:17:12;;;;;;;6.95;3.08;;;;;;;10.60;74.56;102105.97;4973510;28;100730;-34
2022/04/14 03:19:37;;;;;;;6.90;4.22;;;;;;;10.53;74.20;102088.19;4974025;28;112822;-34
2022/04/14 03:22:03;;;;;;;10.07;4.35;;;;;;;10.57;74.05;102106.09;4973737;28;118792;-34
2022/04/14 03:24:28;;;;;;;11.07;4.57;;;;;;;10.51;73.72;102087.41;4974054;28;99173;-34
2022/04/14 03:26:54;;;;;;;9.30;4.53;;;;;;;10.47;74.33;102093.88;4974285;28;107367;-34
2022/04/14 03:29:19;;;;;;;7.72;3.92;;;;;;;10.52;74.00;102104.53;4973442;28;96570;-34
2022/04/14 03:31:44;;;;;;;10.25;4.55;;;;;;;10.55;74.27;102110.69;4974970;28;96774;-34
2022/04/14 03:34:09;;;;;;;13.90;4.18;;;;;;;10.53;74.21;102104.44;4972433;28;126757;-34
2022/04/14 03:36:35;;;;;;;10.77;4.03;;;;;;;10.50;73.95;102104.59;4976711;28;115490;-34
2022/04/14 03:39:00;;;;;;;8.07;4.07;;;;;;;10.52;74.64;102110.84;4976118;28;116807;-34
2022/04/14 03:41:25;;;;;;;11.02;4.30;;;;;;;10.47;74.35;102107.44;4978180;28;98427;-34
2022/04/14 03:43:50;;;;;;;7.97;4.07;;;;;;;10.49;74.91;102110.09;4976829;28;126143;-34
2022/04/14 03:46:18;;;;;;;9.43;3.97;;;;;;;10.44;75.13;102104.84;4975759;28;128413;-34
2022/04/14 03:48:43;;;;;;;8.55;3.70;;;;;;;10.47;74.37;102107.44;4975932;28;96780;-34
2022/04/14 03:51:09;;;;;;;12.75;5.25;;;;;;;10.44;74.18;102118.41;4978184;28;96907;-34
2022/04/14 03:53:35;;;;;;;10.95;4.70;;;;;;;10.38;74.11;102102.38;4976154;28;100811;-34
2022/04/14 03:56:00;;;;;;;11.68;4.68;;;;;;;10.34;74.63;102111.56;4977525;28;99090;-34
2022/04/14 03:58:25;;;;;;;8.15;4.47;;;;;;;10.34;74.58;102114.28;4977628;28;96790;-34
2022/04/14 04:00:51;;;;;;;10.75;4.65;;;;;;;10.34;74.23;102114.28;4977699;28;96842;-34
2022/04/14 04:03:16;;;;;;;7.45;3.90;;;;;;;10.29;74.17;102111.75;4977150;28;99227;-34
2022/04/14 04:05:41;;;;;;;7.28;3.88;;;;;;;10.35;74.03;102126.91;4977188;28;119444;-34
2022/04/14 04:08:07;;;;;;;7.88;4.55;;;;;;;10.31;74.51;102120.69;4977040;28;96922;-34
2022/04/14 04:10:33;;;;;;;7.65;4.00;;;;;;;10.17;74.99;102110.38;4976334;28;96787;-34
2022/04/14 04:12:58;;;;;;;12.48;4.63;;;;;;;10.08;75.51;102108.06;4977020;28;97979;-34
2022/04/14 04:15:24;;;;;;;10.43;5.05;;;;;;;10.17;75.56;102129.34;4975580;28;112183;-34
2022/04/14 04:17:51;;;;;;;11.00;4.82;;;;;;;10.16;75.17;102127.59;4958763;28;117032;-34
2022/04/14 04:20:17;;;;;;;14.20;5.15;;;;;;;10.16;75.00;102118.59;4976121;28;96847;-34
2022/04/14 04:22:43;;;;;;;7.88;4.13;;;;;;;10.10;75.14;102113.41;4975625;28;101057;-34
2022/04/14 04:25:08;;;;;;;8.13;3.95;;;;;;;10.13;75.72;102118.69;4977282;28;97383;-34
2022/04/14 04:27:34;;;;;;;9.07;4.20;;;;;;;10.15;74.79;102122.22;4977208;28;96645;-34
2022/04/14 04:30:00;;;;;;;9.40;4.45;;;;;;;10.11;74.63;102112.47;4977953;28;96742;-34
2022/04/14 04:32:25;;;;;;;10.48;4.60;;;;;;;10.08;75.75;102109.88;4975716;28;127159;-34
2022/04/14 04:34:50;;;;;;;12.80;5.60;;;;;;;10.00;75.35;102102.06;4977131;28;97811;-34
2022/04/14 04:37:16;;;;;;;10.27;4.40;;;;;;;10.03;75.67;102115.44;4975925;28;119055;-34
2022/04/14 04:39:41;;;;;;;10.95;4.93;;;;;;;10.05;75.06;102126.22;4977413;28;96861;-34
2022/04/14 04:42:07;;;;;;;7.45;4.20;;;;;;;10.04;74.90;102121.78;4976626;28;99105;-34
2022/04/14 04:44:32;;;;;;;10.82;5.22;;;;;;;10.03;75.27;102122.69;4976810;28;99215;-34
2022/04/14 04:46:57;;;;;;;12.10;5.05;;;;;;;10.04;75.65;102119.94;4976605;28;96575;-34
2022/04/14 04:49:23;;;;;;;8.40;4.20;;;;;;;10.06;75.67;102134.31;4976760;28;102744;-34
2022/04/14 04:51:48;;;;;;;8.65;3.92;;;;;;;9.98;75.79;102128.28;4976885;28;97873;-34
2022/04/14 04:54:13;;;;;;;11.73;4.72;;;;;;;10.03;74.82;102147.06;4977028;28;99047;-34
2022/04/14 04:56:39;;;;;;;9.93;4.20;;;;;;;9.99;75.55;102136.38;4977113;28;96616;-34
2022/04/14 04:59:04;;;;;;;10.80;4.00;;;;;;;10.04;75.37;102155.13;4976011;28;113381;-34
2022/04/14 05:01:29;;;;;;;10.10;4.88;;;;;;;9.96;74.62;102139.19;4975110;28;126370;-34
2022/04/14 05:03:54;;;;;;;11.77;4.95;;;;;;;9.92;75.96;102145.66;4975869;28;115142;-34
2022/04/14 05:06:20;;;;;;;9.98;4.65;;;;;;;9.93;75.78;102154.66;4976383;28;96445;-34
2022/04/14 05:08:46;;;;;;;7.50;4.35;;;;;;;9.94;76.07;102157.31;4975754;28;106225;-34
2022/04/14 05:11:12;;;;;;;9.63;4.43;;;;;;;9.84;75.45;102133.34;4976286;28;99333;-34
2022/04/14 05:13:37;;;;;;;9.52;4.57;;;;;;;9.92;75.34;102163.72;4976484;28;97790;-34
2022/04/14 05:16:04;;;;;;;11.02;5.45;;;;;;;9.87;75.34;102144.97;4975651;28;115495;-34
2022/04/14 05:18:29;;;;;;;10.80;5.70;;;;;;;9.89;75.93;102162.03;4975428;28;97751;-34
2022/04/14 05:20:55;;;;;;;13.43;5.53;;;;;;;9.94;75.96;102159.16;4976148;28;97797;-34
2022/04/14 05:23:20;;;;;;;14.05;5.00;;;;;;;9.93;75.18;102160.06;4975639;28;117724;-34
2022/04/14 05:25:45;;;;;;;10.93;4.57;;;;;;;9.90;75.40;102152.94;4975809;28;96572;-34
2022/04/14 05:28:11;;;;;;;13.23;4.35;;;;;;;9.92;75.41;102152.91;4976501;28;96774;-34
2022/04/14 05:30:36;;;;;;;14.43;4.45;;;;;;;9.96;75.40;102165.34;4976077;28;97920;-34
2022/04/14 05:33:02;;;;;;;7.28;4.10;;;;;;;9.99;75.97;102163.44;4975896;28;97937;-34
2022/04/14 05:35:27;;;;;;;10.10;4.75;;;;;;;9.99;76.08;102165.25;4976127;28;96613;-34
2022/04/14 05:37:52;;;;;;;7.15;4.05;;;;;;;10.03;75.35;102169.59;4975428;28;115585;-34
2022/04/14 05:40:18;;;;;;;10.23;5.05;;;;;;;10.04;74.97;102174.09;4975881;28;102305;-34
2022/04/14 05:42:46;;;;;;;9.82;4.50;;;;;;;10.06;75.22;102174.91;4976323;28;97799;-34
2022/04/14 05:45:15;;;;;;;8.07;4.30;;;;;;;10.07;75.47;102171.25;4974744;28;96518;-34
2022/04/14 05:47:40;;;;;;;18.67;5.28;;;;;;;10.03;74.58;102161.47;4975671;28;96917;-34
2022/04/14 05:50:06;;;;;;;7.88;4.75;;;;;;;10.10;74.67;102171.13;4975317;28;98079;-34
2022/04/14 05:52:32;;;;;;;10.00;4.97;;;;;;;10.13;74.57;102162.00;4974343;28;100750;-34
2022/04/14 05:55:01;;;;;;;10.45;5.07;;;;;;;10.17;75.25;102161.81;4974801;28;114314;-34
2022/04/14 05:57:27;;;;;;;9.45;4.72;;;;;;;10.20;74.07;102152.69;4974427;28;96877;-34
2022/04/14 05:59:52;;;;;;;7.55;4.28;;;;;;;10.21;74.40;102149.06;4973302;28;97905;-34
2022/04/14 06:02:18;;;;;;;9.70;5.07;;;;;;;10.31;74.30;102164.03;4974386;28;127058;-34
2022/04/14 06:04:43;;;;;;;14.00;4.38;;;;;;;10.38;74.74;102173.69;4974699;28;96610;-35
2022/04/14 06:07:21;;;;;;;14.90;4.55;;;;;;;10.37;74.30;102177.34;4974466;28;96896;-34
2022/04/14 06:09:46;;;;;;;10.57;4.90;;;;;;;10.46;74.13;102170.66;4973727;28;104623;-34
2022/04/14 06:12:11;;;;;;;11.80;4.68;;;;;;;10.55;73.48;102186.56;4973622;28;127004;-34
2022/04/14 06:14:37;;;;;;;10.68;4.68;;;;;;;10.62;73.31;102179.06;4973644;28;101546;-34
2022/04/14 06:17:02;;;;;;;15.32;5.68;;;;;;;10.73;73.17;102186.78;4973290;28;114302;-34
2022/04/14 06:19:28;;;;;;;12.80;4.95;;;;;;;10.82;73.33;102190.00;4973175;28;97848;-34
2022/04/14 06:21:53;;;;;;;16.15;5.57;;;;;;;10.92;72.93;102179.66;4974728;28;97508;-34
2022/04/14 06:24:24;;;;;;;14.07;5.20;;;;;;;10.99;73.28;102183.88;4974808;28;96816;-34
2022/04/14 06:26:50;;;;;;;14.85;5.90;;;;;;;11.03;73.02;102171.94;4974315;28;116813;-34
2022/04/14 06:29:15;;;;;;;14.13;5.70;;;;;;;11.15;72.81;102175.06;4974617;28;110816;-34
2022/04/14 06:31:40;;;;;;;11.07;5.05;;;;;;;11.31;72.60;102183.44;4975254;28;106413;-34
2022/04/14 06:34:05;;;;;;;13.45;5.40;;;;;;;11.46;72.48;102185.47;4974603;28;116552;-34
2022/04/14 06:36:31;;;;;;;16.55;5.47;;;;;;;11.52;72.06;102165.34;4974785;28;109269;-34
2022/04/14 06:38:57;;;;;;;15.07;5.95;;;;;;;11.71;71.78;102184.41;4973040;28;101315;-34
2022/04/14 06:41:23;;;;;;;15.25;5.65;;;;;;;11.81;71.71;102175.78;4974516;28;97815;-34
2022/04/14 06:43:49;;;;;;;11.30;5.43;;;;;;;12.03;71.55;102183.84;4973429;28;96550;-35
2022/04/14 06:46:18;;;;;;;13.15;5.32;;;;;;;12.17;71.51;102187.75;4971748;28;97182;-35
2022/04/14 06:48:44;;;;;;;12.98;5.50;;;;;;;12.26;71.54;102180.06;4975089;28;97887;-34
2022/04/14 06:51:10;;;;;;;13.13;5.75;;;;;;;12.39;71.13;102176.75;4974685;28;99057;-34
2022/04/14 06:53:35;;;;;;;12.77;5.88;;;;;;;12.51;71.37;102178.88;4973956;28;96554;-34
2022/04/14 06:56:01;;;;;;;13.43;5.53;;;;;;;12.69;70.87;102191.59;4975339;28;97119;-34
2022/04/14 06:58:26;;;;;;;18.73;5.45;;;;;;;12.89;70.21;102197.88;4974451;28;99464;-34
2022/04/14 07:00:51;;;;;;;13.30;6.25;;;;;;;13.02;69.90;102190.00;4973100;28;107121;-35
2022/04/14 07:03:19;;;;;;;11.75;5.55;;;;;;;13.26;69.49;102199.63;4972706;28;116265;-34
2022/04/14 07:05:46;;;;;;;13.98;5.68;;;;;;;13.45;69.32;102201.44;4974684;28;96830;-34
2022/04/14 07:08:11;;;;;;;12.75;6.60;;;;;;;13.56;69.30;102197.19;4973899;28;99734;-34
2022/04/14 07:10:36;;;;;;;13.63;6.20;;;;;;;13.54;69.22;102190.94;4974364;28;97735;-35
2022/04/14 07:13:02;;;;;;;13.45;5.28;;;;;;;13.66;69.37;102199.41;4974764;28;96562;-34
2022/04/14 07:15:27;;;;;;;13.68;6.28;;;;;;;13.77;69.13;102194.28;4974911;28;96921;-34
2022/04/14 07:17:52;;;;;;;12.32;6.43;;;;;;;13.94;68.90;102207.91;4974539;28;99377;-34
2022/04/14 07:20:17;;;;;;;18.95;7.07;;;;;;;14.16;68.37;102204.00;4974092;28;125416;-34
2022/04/14 07:22:50;;;;;;;14.82;6.97;;;;;;;14.33;67.86;102206.66;4973995;28;116830;-34
2022/04/14 07:25:16;;;;;;;17.80;7.13;;;;;;;14.28;67.71;102197.88;4973203;28;96929;-34
2022/04/14 07:27:43;;;;;;;16.92;7.78;;;;;;;14.34;67.83;102194.78;4972566;28;101576;-34
2022/04/14 07:30:08;;;;;;;18.73;7.25;;;;;;;14.48;67.56;102207.66;4973067;28;101118;-34
2022/04/14 07:32:43;;;;;;;24.85;9.02;;;;;;;14.56;67.42;102209.97;4974802;28;96520;-34
2022/04/14 07:35:08;;;;;;;18.23;7.07;;;;;;;14.52;67.63;102213.81;4975006;28;96781;-34
2022/04/14 07:37:36;;;;;;;18.23;7.43;;;;;;;14.40;67.92;102204.47;4974268;28;99560;-34
2022/04/14 07:40:01;;;;;;;18.33;7.90;;;;;;;14.39;68.26;102225.38;4972767;28;100898;-34
2022/04/14 07:42:35;;;;;;;18.42;7.10;;;;;;;14.39;68.58;102222.66;4974458;28;96771;-34
2022/04/14 07:45:02;;;;;;;14.40;6.50;;;;;;;14.36;68.12;102217.38;4975207;28;96499;-34
2022/04/14 07:47:27;;;;;;;24.63;7.43;;;;;;;14.35;68.21;102226.53;4956581;28;101118;-34
2022/04/14 07:50:02;;;;;;;18.35;6.63;;;;;;;14.47;68.53;102222.25;4974340;28;97836;-34
2022/04/14 07:52:28;;;;;;;14.48;6.57;;;;;;;14.53;67.79;102215.56;4972508;28;96811;-34
2022/04/14 07:54:53;;;;;;;19.20;7.63;;;;;;;14.88;67.45;102220.91;4973073;28;96879;-34
2022/04/14 07:57:18;;;;;;;17.55;8.05;;;;;;;14.91;66.81;102223.44;4974241;28;97915;-34
2022/04/14 07:59:44;;;;;;;20.30;7.57;;;;;;;14.89;66.75;102226.25;4973977;28;99083;-34
2022/04/14 08:02:09;;;;;;;17.30;7.30;;;;;;;14.79;67.18;102220.44;4974054;28;100685;-34
2022/04/14 08:04:47;;;;;;;16.48;7.22;;;;;;;14.71;67.42;102217.28;4973075;28;96898;-34
2022/04/14 08:07:12;;;;;;;14.48;6.90;;;;;;;14.69;67.91;102227.41;4973747;28;99442;-34
2022/04/14 08:09:37;;;;;;;21.98;8.05;;;;;;;14.92;67.43;102220.66;4973708;28;99389;-34
2022/04/14 08:12:03;;;;;;;17.02;7.80;;;;;;;14.99;66.74;102221.16;4973458;28;116830;-34
2022/04/14 08:14:28;;;;;;;23.60;7.95;;;;;;;15.02;66.98;102221.00;4974204;28;96863;-34
2022/04/14 08:16:54;;;;;;;19.00;8.75;;;;;;;15.16;66.47;102212.88;4973293;28;99513;-34
2022/04/14 08:19:19;;;;;;;17.70;7.35;;;;;;;15.29;65.81;102215.75;4972436;28;100929;-34
2022/04/14 08:21:45;;;;;;;18.17;7.57;;;;;;;15.57;65.59;102220.44;4973169;28;117145;-34
2022/04/14 08:24:11;;;;;;;19.50;8.82;;;;;;;15.89;64.73;102229.41;4975890;28;96884;-34
2022/04/14 08:26:36;;;;;;;23.65;7.18;;;;;;;15.99;64.14;102224.22;4977241;28;97548;-34
2022/04/14 08:29:02;;;;;;;19.42;7.38;;;;;;;15.82;63.97;102221.69;4975124;28;121931;-34
2022/04/14 08:31:27;;;;;;;13.65;6.30;;;;;;;15.83;64.88;102223.47;4977596;28;96653;-34
2022/04/14 08:33:53;;;;;;;21.30;7.03;;;;;;;15.96;64.20;102227.16;4977908;28;96779;-34
2022/04/14 08:36:19;;;;;;;22.65;7.28;;;;;;;16.02;63.33;102229.53;4977017;28;97357;-34
2022/04/14 08:38:46;;;;;;;22.00;7.00;;;;;;;16.14;63.43;102227.88;4977060;28;97797;-34
2022/04/14 08:41:13;;;;;;;12.75;6.00;;;;;;;16.35;63.12;102232.00;4976364;28;96659;-34
2022/04/14 08:43:46;;;;;;;22.92;7.38;;;;;;;16.41;63.01;102213.44;4975667;28;96839;-34
2022/04/14 08:46:14;;;;;;;15.50;6.40;;;;;;;16.52;62.96;102209.03;4975440;28;100867;-34
2022/04/14 08:48:41;;;;;;;18.00;7.35;;;;;;;16.51;62.52;102189.97;4975141;28;101110;-34
2022/04/14 08:51:08;;;;;;;15.05;6.30;;;;;;;16.79;62.42;102208.22;4975727;28;96623;-34
2022/04/14 08:53:37;;;;;;;17.05;5.90;;;;;;;16.83;61.62;102195.19;4975807;28;97354;-34
2022/04/14 08:56:05;;;;;;;14.38;5.90;;;;;;;17.08;61.00;102188.97;4975362;28;99111;-34
2022/04/14 08:58:32;;;;;;;20.92;6.45;;;;;;;17.48;61.07;102188.97;4975506;28;100684;-34
2022/04/14 09:00:58;;;;;;;16.38;7.75;;;;;;;17.68;60.67;102172.00;4975553;28;96645;-34
2022/04/14 09:03:27;;;;;;;17.52;7.25;;;;;;;18.00;59.17;102179.88;4975198;28;98668;-34
2022/04/14 09:05:52;;;;;;;19.85;7.03;;;;;;;18.02;59.41;102176.03;4974618;28;101503;-34
2022/04/14 09:08:18;;;;;;;22.20;6.65;;;;;;;18.15;59.26;102189.72;4975682;28;99146;-34
2022/04/14 09:10:43;;;;;;;22.83;5.40;;;;;;;18.50;58.33;102193.63;4976791;28;96465;-34
2022/04/14 09:13:12;;;;;;;17.90;6.90;;;;;;;18.53;58.82;102187.91;4976598;28;96890;-34
2022/04/14 09:15:38;;;;;;;16.77;5.30;;;;;;;18.91;58.42;102186.94;4974715;28;100868;-34
2022/04/14 09:18:03;;;;;;;19.52;4.93;;;;;;;18.78;57.49;102182.38;4976145;28;98201;-34
2022/04/14 09:20:40;;;;;;;10.15;3.30;;;;;;;18.83;57.71;102191.16;4976385;28;96605;-34
2022/04/14 09:23:20;;;;;;;14.25;5.05;;;;;;;19.17;57.22;102194.06;4975677;28;96714;-34
2022/04/14 09:26:14;;;;;;;12.15;4.43;;;;;;;19.33;56.40;102196.53;4976281;28;97879;-34
2022/04/14 09:29:03;;;;;;;15.25;4.55;;;;;;;19.47;55.86;102207.34;4974315;28;99087;-34
2022/04/14 09:31:29;;;;;;;22.95;5.90;;;;;;;19.63;56.09;102203.38;4974628;28;96647;-34
2022/04/14 09:33:55;;;;;;;16.00;5.63;;;;;;;19.45;54.03;102205.66;4974783;28;96923;-34
2022/04/14 09:36:23;;;;;;;13.93;5.57;;;;;;;19.69;56.22;102224.94;4975819;28;99359;-34
2022/04/14 09:39:07;;;;;;;18.98;5.88;;;;;;;19.99;55.19;102216.09;4974593;28;101422;-34
2022/04/14 09:41:42;;;;;;;20.65;6.15;;;;;;;20.33;54.47;102222.53;4975718;28;106071;-34
2022/04/14 09:44:13;;;;;;;20.60;6.30;;;;;;;20.58;54.89;102226.06;4974829;28;96781;-34
2022/04/14 09:46:43;;;;;;;19.67;6.20;;;;;;;20.78;52.84;102241.84;4974691;28;99006;-34
2022/04/14 09:49:18;;;;;;;13.27;4.95;;;;;;;20.92;54.48;102240.66;4974446;28;100984;-34
2022/04/14 09:51:46;;;;;;;20.05;6.43;;;;;;;20.87;53.96;102231.03;4974860;28;96571;-34
2022/04/14 09:54:19;;;;;;;15.68;4.93;;;;;;;21.11;52.40;102237.25;4974801;28;96969;-34
2022/04/14 09:56:49;;;;;;;19.05;5.53;;;;;;;21.16;53.42;102236.84;4973849;28;101277;-34
2022/04/14 09:59:17;;;;;;;21.55;6.10;;;;;;;21.28;53.32;102235.81;4974139;28;100972;-34
2022/04/14 10:01:43;;;;;;;18.25;5.70;;;;;;;21.15;53.34;102229.59;4958251;28;96737;-34
2022/04/14 10:04:29;;;;;;;12.55;5.13;;;;;;;21.06;51.79;102228.50;4974570;28;96656;-34
2022/04/14 10:07:03;;;;;;;19.38;7.03;;;;;;;21.11;53.27;102233.63;4958158;28;100581;-34
2022/04/14 10:09:30;;;;;;;12.27;5.53;;;;;;;21.21;51.96;102227.22;4973464;28;98943;-34
2022/04/14 10:11:55;;;;;;;12.90;5.38;;;;;;;21.10;48.87;102220.84;4975616;28;96626;-34
2022/04/14 10:14:24;;;;;;;16.92;5.63;;;;;;;21.09;52.21;102228.22;4976223;28;96797;-34
2022/04/14 10:16:51;;;;;;;18.15;5.50;;;;;;;21.52;50.27;102220.97;4974114;28;101125;-34
2022/04/14 10:19:18;;;;;;;18.42;6.00;;;;;;;21.78;51.40;102229.75;4975177;28;99002;-34
2022/04/14 10:21:44;;;;;;;30.52;7.28;;;;;;;21.67;49.62;102227.06;4973633;28;96721;-34
2022/04/14 10:24:11;;;;;;;25.90;7.35;;;;;;;21.56;51.43;102230.72;4974222;28;96902;-34
2022/04/14 10:26:37;;;;;;;21.13;6.65;;;;;;;21.73;51.68;102223.75;4973648;28;101091;-34
2022/04/14 10:29:06;;;;;;;22.52;7.03;;;;;;;21.44;51.68;102240.94;4975614;28;97390;-34
2022/04/14 10:31:41;;;;;;;22.02;6.35;;;;;;;21.03;52.62;102241.66;4974182;28;96877;-34
2022/04/14 10:34:08;;;;;;;20.48;6.57;;;;;;;20.74;53.17;102236.72;4974256;28;96900;-34
2022/04/14 10:36:42;;;;;;;11.93;5.40;;;;;;;20.57;53.62;102238.09;4973711;28;101012;-34
2022/04/14 10:39:12;;;;;;;17.45;5.95;;;;;;;20.26;54.02;102246.06;4975216;28;98929;-34
2022/04/14 10:41:44;;;;;;;20.02;6.38;;;;;;;20.03;54.69;102236.88;4973791;28;96610;-34
2022/04/14 10:44:10;;;;;;;13.77;4.88;;;;;;;19.77;54.34;102244.44;4974120;28;96724;-34
2022/04/14 10:46:40;;;;;;;11.63;3.10;;;;;;;19.59;54.54;102251.34;4973693;28;99418;-34
2022/04/14 10:49:13;;;;;;;12.00;3.53;;;;;;;19.91;54.94;102255.22;4973526;28;101372;-34
2022/04/14 10:51:39;;;;;;;8.68;4.05;;;;;;;20.39;53.47;102245.94;4973641;28;96650;-34
2022/04/14 10:54:07;;;;;;;12.85;4.90;;;;;;;20.51;52.86;102253.19;4975324;28;96847;-34
2022/04/14 10:56:39;;;;;;;9.05;4.00;;;;;;;20.21;53.52;102251.03;4973553;28;100991;-34
2022/04/14 10:59:12;;;;;;;10.60;4.28;;;;;;;19.91;54.08;102257.97;4974520;28;99296;-34
2022/04/14 11:01:47;;;;;;;11.75;4.60;;;;;;;19.77;53.66;102254.56;4973729;28;96597;-34
2022/04/14 11:04:29;;;;;;;6.63;4.00;;;;;;;19.80;54.10;102248.81;4975281;28;96785;-34
2022/04/14 11:07:18;;;;;;;11.45;4.30;;;;;;;20.21;53.53;102234.50;4973222;28;101342;-34
2022/04/14 11:09:59;;;;;;;9.25;4.68;;;;;;;20.74;52.03;102247.72;4974237;28;99340;-34
2022/04/14 11:12:32;;;;;;;14.50;5.32;;;;;;;21.10;51.40;102245.66;4974581;28;96694;-34
2022/04/14 11:15:05;;;;;;;13.20;4.93;;;;;;;21.46;50.36;102247.19;4975252;28;96674;-34